<?xml version="1.0" encoding="UTF-8" standalone="no" ?>
<gpx xmlns="http://www.topografix.com/GPX/1/1" xmlns:xsi="http://www.w3.org/2001/XMLSchema-instance" xsi:schemaLocation="http://www.topografix.com/GPX/1/1 http://www.topografix.com/GPX/1/1/gpx.xsd" version="1.1" creator="VisuGPX - https://www.visugpx.com">
  <metadata>
    <name>L Aulp Du Seuil</name>
    <desc><![CDATA[grp_trc:[nouvelles]]]></desc>
  </metadata>
  <trk>
    <name><![CDATA[16 juin 2021 à 16:17:49]]></name>
    <cmt><![CDATA[16 juin 2021 à 16:17:49]]></cmt>
    <trkseg>
      <trkpt lat="45.11631" lon="5.40387">
        <ele>942</ele>
        <time>2021-06-16T14:17:49Z</time>
      </trkpt>
      <trkpt lat="45.11631" lon="5.40385">
        <ele>942</ele>
        <time>2021-06-16T14:17:50Z</time>
      </trkpt>
      <trkpt lat="45.11629" lon="5.40357">
        <ele>944</ele>
        <time>2021-06-16T14:18:29Z</time>
      </trkpt>
      <trkpt lat="45.11621" lon="5.4036">
        <ele>944</ele>
        <time>2021-06-16T14:19:03Z</time>
      </trkpt>
      <trkpt lat="45.11615" lon="5.40359">
        <ele>944</ele>
        <time>2021-06-16T14:19:07Z</time>
      </trkpt>
      <trkpt lat="45.1161" lon="5.40362">
        <ele>944</ele>
        <time>2021-06-16T14:19:12Z</time>
      </trkpt>
      <trkpt lat="45.11601" lon="5.40361">
        <ele>945</ele>
        <time>2021-06-16T14:19:21Z</time>
      </trkpt>
      <trkpt lat="45.11584" lon="5.40358">
        <ele>945</ele>
        <time>2021-06-16T14:19:39Z</time>
      </trkpt>
      <trkpt lat="45.11569" lon="5.4036">
        <ele>945</ele>
        <time>2021-06-16T14:19:54Z</time>
      </trkpt>
      <trkpt lat="45.11562" lon="5.40364">
        <ele>944</ele>
        <time>2021-06-16T14:20:01Z</time>
      </trkpt>
      <trkpt lat="45.11554" lon="5.40367">
        <ele>943</ele>
        <time>2021-06-16T14:20:07Z</time>
      </trkpt>
      <trkpt lat="45.1155" lon="5.40372">
        <ele>942</ele>
        <time>2021-06-16T14:20:18Z</time>
      </trkpt>
      <trkpt lat="45.11543" lon="5.40376">
        <ele>943</ele>
        <time>2021-06-16T14:20:24Z</time>
      </trkpt>
      <trkpt lat="45.11537" lon="5.40378">
        <ele>942</ele>
        <time>2021-06-16T14:20:28Z</time>
      </trkpt>
      <trkpt lat="45.11533" lon="5.40374">
        <ele>941</ele>
        <time>2021-06-16T14:20:33Z</time>
      </trkpt>
      <trkpt lat="45.11528" lon="5.40376">
        <ele>942</ele>
        <time>2021-06-16T14:21:11Z</time>
      </trkpt>
      <trkpt lat="45.11526" lon="5.40367">
        <ele>942</ele>
        <time>2021-06-16T14:21:17Z</time>
      </trkpt>
      <trkpt lat="45.11527" lon="5.40359">
        <ele>941</ele>
        <time>2021-06-16T14:21:23Z</time>
      </trkpt>
      <trkpt lat="45.11524" lon="5.40351">
        <ele>941</ele>
        <time>2021-06-16T14:21:36Z</time>
      </trkpt>
      <trkpt lat="45.11519" lon="5.40357">
        <ele>941</ele>
        <time>2021-06-16T14:21:44Z</time>
      </trkpt>
      <trkpt lat="45.11514" lon="5.40362">
        <ele>940</ele>
        <time>2021-06-16T14:21:50Z</time>
      </trkpt>
      <trkpt lat="45.11509" lon="5.40366">
        <ele>939</ele>
        <time>2021-06-16T14:22:01Z</time>
      </trkpt>
      <trkpt lat="45.115" lon="5.40367">
        <ele>938</ele>
        <time>2021-06-16T14:22:21Z</time>
      </trkpt>
      <trkpt lat="45.11494" lon="5.40361">
        <ele>937</ele>
        <time>2021-06-16T14:22:25Z</time>
      </trkpt>
      <trkpt lat="45.11495" lon="5.40366">
        <ele>940</ele>
        <time>2021-06-16T14:22:59Z</time>
      </trkpt>
      <trkpt lat="45.115" lon="5.40371">
        <ele>940</ele>
        <time>2021-06-16T14:23:29Z</time>
      </trkpt>
      <trkpt lat="45.11502" lon="5.40379">
        <ele>940</ele>
        <time>2021-06-16T14:23:33Z</time>
      </trkpt>
      <trkpt lat="45.11507" lon="5.40371">
        <ele>941</ele>
        <time>2021-06-16T14:23:50Z</time>
      </trkpt>
      <trkpt lat="45.11513" lon="5.40371">
        <ele>941</ele>
        <time>2021-06-16T14:23:54Z</time>
      </trkpt>
      <trkpt lat="45.11518" lon="5.40372">
        <ele>941</ele>
        <time>2021-06-16T14:23:58Z</time>
      </trkpt>
      <trkpt lat="45.11524" lon="5.40371">
        <ele>943</ele>
        <time>2021-06-16T14:24:04Z</time>
      </trkpt>
      <trkpt lat="45.11536" lon="5.40379">
        <ele>944</ele>
        <time>2021-06-16T14:24:14Z</time>
      </trkpt>
      <trkpt lat="45.11542" lon="5.40377">
        <ele>945</ele>
        <time>2021-06-16T14:24:26Z</time>
      </trkpt>
      <trkpt lat="45.11534" lon="5.40389">
        <ele>944</ele>
        <time>2021-06-16T14:24:49Z</time>
      </trkpt>
      <trkpt lat="45.1153" lon="5.40396">
        <ele>942</ele>
        <time>2021-06-16T14:24:57Z</time>
      </trkpt>
      <trkpt lat="45.11545" lon="5.40431">
        <ele>939</ele>
        <time>2021-06-16T14:25:24Z</time>
      </trkpt>
      <trkpt lat="45.11548" lon="5.40442">
        <ele>938</ele>
        <time>2021-06-16T14:25:29Z</time>
      </trkpt>
      <trkpt lat="45.11547" lon="5.40453">
        <ele>937</ele>
        <time>2021-06-16T14:25:35Z</time>
      </trkpt>
      <trkpt lat="45.11545" lon="5.4046">
        <ele>936</ele>
        <time>2021-06-16T14:25:39Z</time>
      </trkpt>
      <trkpt lat="45.11542" lon="5.40469">
        <ele>935</ele>
        <time>2021-06-16T14:25:51Z</time>
      </trkpt>
      <trkpt lat="45.11534" lon="5.40475">
        <ele>934</ele>
        <time>2021-06-16T14:26:04Z</time>
      </trkpt>
      <trkpt lat="45.11529" lon="5.40477">
        <ele>933</ele>
        <time>2021-06-16T14:26:09Z</time>
      </trkpt>
      <trkpt lat="45.11515" lon="5.40494">
        <ele>932</ele>
        <time>2021-06-16T14:26:26Z</time>
      </trkpt>
      <trkpt lat="45.11501" lon="5.40502">
        <ele>930</ele>
        <time>2021-06-16T14:26:40Z</time>
      </trkpt>
      <trkpt lat="45.11495" lon="5.40509">
        <ele>930</ele>
        <time>2021-06-16T14:26:46Z</time>
      </trkpt>
      <trkpt lat="45.11487" lon="5.40523">
        <ele>929</ele>
        <time>2021-06-16T14:26:59Z</time>
      </trkpt>
      <trkpt lat="45.11478" lon="5.40527">
        <ele>927</ele>
        <time>2021-06-16T14:27:09Z</time>
      </trkpt>
      <trkpt lat="45.1147" lon="5.40522">
        <ele>927</ele>
        <time>2021-06-16T14:27:14Z</time>
      </trkpt>
      <trkpt lat="45.11463" lon="5.40514">
        <ele>927</ele>
        <time>2021-06-16T14:27:19Z</time>
      </trkpt>
      <trkpt lat="45.1146" lon="5.40508">
        <ele>927</ele>
        <time>2021-06-16T14:27:23Z</time>
      </trkpt>
      <trkpt lat="45.11455" lon="5.40499">
        <ele>927</ele>
        <time>2021-06-16T14:27:30Z</time>
      </trkpt>
      <trkpt lat="45.11448" lon="5.40491">
        <ele>926</ele>
        <time>2021-06-16T14:27:41Z</time>
      </trkpt>
      <trkpt lat="45.11444" lon="5.40498">
        <ele>927</ele>
        <time>2021-06-16T14:28:01Z</time>
      </trkpt>
      <trkpt lat="45.11463" lon="5.40522">
        <ele>928</ele>
        <time>2021-06-16T14:28:20Z</time>
      </trkpt>
      <trkpt lat="45.11477" lon="5.40524">
        <ele>929</ele>
        <time>2021-06-16T14:28:34Z</time>
      </trkpt>
      <trkpt lat="45.11485" lon="5.4052">
        <ele>930</ele>
        <time>2021-06-16T14:28:39Z</time>
      </trkpt>
      <trkpt lat="45.11491" lon="5.40525">
        <ele>930</ele>
        <time>2021-06-16T14:28:50Z</time>
      </trkpt>
      <trkpt lat="45.11492" lon="5.40546">
        <ele>931</ele>
        <time>2021-06-16T14:29:02Z</time>
      </trkpt>
      <trkpt lat="45.11485" lon="5.40576">
        <ele>932</ele>
        <time>2021-06-16T14:29:18Z</time>
      </trkpt>
      <trkpt lat="45.11486" lon="5.406">
        <ele>934</ele>
        <time>2021-06-16T14:29:29Z</time>
      </trkpt>
      <trkpt lat="45.11484" lon="5.4061">
        <ele>934</ele>
        <time>2021-06-16T14:29:35Z</time>
      </trkpt>
      <trkpt lat="45.11478" lon="5.40621">
        <ele>936</ele>
        <time>2021-06-16T14:29:51Z</time>
      </trkpt>
      <trkpt lat="45.1147" lon="5.40624">
        <ele>936</ele>
        <time>2021-06-16T14:30:21Z</time>
      </trkpt>
      <trkpt lat="45.11458" lon="5.40622">
        <ele>936</ele>
        <time>2021-06-16T14:30:34Z</time>
      </trkpt>
      <trkpt lat="45.1145" lon="5.40622">
        <ele>936</ele>
        <time>2021-06-16T14:31:16Z</time>
      </trkpt>
      <trkpt lat="45.11442" lon="5.40623">
        <ele>936</ele>
        <time>2021-06-16T14:31:22Z</time>
      </trkpt>
      <trkpt lat="45.11419" lon="5.40625">
        <ele>938</ele>
        <time>2021-06-16T14:31:39Z</time>
      </trkpt>
      <trkpt lat="45.11413" lon="5.40623">
        <ele>938</ele>
        <time>2021-06-16T14:31:45Z</time>
      </trkpt>
      <trkpt lat="45.11412" lon="5.40609">
        <ele>938</ele>
        <time>2021-06-16T14:31:54Z</time>
      </trkpt>
      <trkpt lat="45.11417" lon="5.40602">
        <ele>937</ele>
        <time>2021-06-16T14:32:01Z</time>
      </trkpt>
      <trkpt lat="45.11418" lon="5.4059">
        <ele>936</ele>
        <time>2021-06-16T14:32:14Z</time>
      </trkpt>
      <trkpt lat="45.11421" lon="5.40581">
        <ele>934</ele>
        <time>2021-06-16T14:32:20Z</time>
      </trkpt>
      <trkpt lat="45.11416" lon="5.40571">
        <ele>933</ele>
        <time>2021-06-16T14:32:33Z</time>
      </trkpt>
      <trkpt lat="45.11417" lon="5.4056">
        <ele>932</ele>
        <time>2021-06-16T14:32:43Z</time>
      </trkpt>
      <trkpt lat="45.11414" lon="5.4055">
        <ele>931</ele>
        <time>2021-06-16T14:32:50Z</time>
      </trkpt>
      <trkpt lat="45.11391" lon="5.40507">
        <ele>928</ele>
        <time>2021-06-16T14:33:24Z</time>
      </trkpt>
      <trkpt lat="45.11386" lon="5.40499">
        <ele>928</ele>
        <time>2021-06-16T14:33:30Z</time>
      </trkpt>
      <trkpt lat="45.11381" lon="5.40492">
        <ele>928</ele>
        <time>2021-06-16T14:33:37Z</time>
      </trkpt>
      <trkpt lat="45.11357" lon="5.40476">
        <ele>927</ele>
        <time>2021-06-16T14:33:55Z</time>
      </trkpt>
      <trkpt lat="45.11348" lon="5.40476">
        <ele>927</ele>
        <time>2021-06-16T14:33:59Z</time>
      </trkpt>
      <trkpt lat="45.11342" lon="5.40478">
        <ele>926</ele>
        <time>2021-06-16T14:34:04Z</time>
      </trkpt>
      <trkpt lat="45.11334" lon="5.40477">
        <ele>926</ele>
        <time>2021-06-16T14:34:10Z</time>
      </trkpt>
      <trkpt lat="45.11323" lon="5.40474">
        <ele>926</ele>
        <time>2021-06-16T14:34:22Z</time>
      </trkpt>
      <trkpt lat="45.11318" lon="5.40476">
        <ele>927</ele>
        <time>2021-06-16T14:34:26Z</time>
      </trkpt>
      <trkpt lat="45.11285" lon="5.40499">
        <ele>930</ele>
        <time>2021-06-16T14:34:58Z</time>
      </trkpt>
      <trkpt lat="45.11277" lon="5.405">
        <ele>931</ele>
        <time>2021-06-16T14:35:04Z</time>
      </trkpt>
      <trkpt lat="45.11254" lon="5.40515">
        <ele>933</ele>
        <time>2021-06-16T14:35:19Z</time>
      </trkpt>
      <trkpt lat="45.11247" lon="5.40516">
        <ele>933</ele>
        <time>2021-06-16T14:35:24Z</time>
      </trkpt>
      <trkpt lat="45.11243" lon="5.40521">
        <ele>934</ele>
        <time>2021-06-16T14:35:29Z</time>
      </trkpt>
      <trkpt lat="45.11235" lon="5.40527">
        <ele>932</ele>
        <time>2021-06-16T14:35:38Z</time>
      </trkpt>
      <trkpt lat="45.11227" lon="5.4053">
        <ele>930</ele>
        <time>2021-06-16T14:35:49Z</time>
      </trkpt>
      <trkpt lat="45.11211" lon="5.4055">
        <ele>928</ele>
        <time>2021-06-16T14:36:16Z</time>
      </trkpt>
      <trkpt lat="45.11205" lon="5.40552">
        <ele>928</ele>
        <time>2021-06-16T14:36:20Z</time>
      </trkpt>
      <trkpt lat="45.11179" lon="5.40538">
        <ele>929</ele>
        <time>2021-06-16T14:36:41Z</time>
      </trkpt>
      <trkpt lat="45.11167" lon="5.40521">
        <ele>929</ele>
        <time>2021-06-16T14:36:54Z</time>
      </trkpt>
      <trkpt lat="45.1116" lon="5.40521">
        <ele>929</ele>
        <time>2021-06-16T14:36:59Z</time>
      </trkpt>
      <trkpt lat="45.11116" lon="5.40493">
        <ele>928</ele>
        <time>2021-06-16T14:37:39Z</time>
      </trkpt>
      <trkpt lat="45.11102" lon="5.40483">
        <ele>928</ele>
        <time>2021-06-16T14:37:50Z</time>
      </trkpt>
      <trkpt lat="45.11086" lon="5.40477">
        <ele>928</ele>
        <time>2021-06-16T14:37:58Z</time>
      </trkpt>
      <trkpt lat="45.11081" lon="5.40471">
        <ele>928</ele>
        <time>2021-06-16T14:38:02Z</time>
      </trkpt>
      <trkpt lat="45.11077" lon="5.40466">
        <ele>928</ele>
        <time>2021-06-16T14:38:07Z</time>
      </trkpt>
      <trkpt lat="45.11067" lon="5.40461">
        <ele>928</ele>
        <time>2021-06-16T14:38:19Z</time>
      </trkpt>
      <trkpt lat="45.11066" lon="5.40446">
        <ele>929</ele>
        <time>2021-06-16T14:38:34Z</time>
      </trkpt>
      <trkpt lat="45.11058" lon="5.40445">
        <ele>930</ele>
        <time>2021-06-16T14:38:46Z</time>
      </trkpt>
      <trkpt lat="45.11054" lon="5.40441">
        <ele>931</ele>
        <time>2021-06-16T14:38:51Z</time>
      </trkpt>
      <trkpt lat="45.11052" lon="5.40434">
        <ele>931</ele>
        <time>2021-06-16T14:39:12Z</time>
      </trkpt>
      <trkpt lat="45.1106" lon="5.40417">
        <ele>931</ele>
        <time>2021-06-16T14:39:44Z</time>
      </trkpt>
      <trkpt lat="45.11066" lon="5.40408">
        <ele>932</ele>
        <time>2021-06-16T14:40:07Z</time>
      </trkpt>
      <trkpt lat="45.11066" lon="5.40414">
        <ele>932</ele>
        <time>2021-06-16T14:40:50Z</time>
      </trkpt>
      <trkpt lat="45.11066" lon="5.40426">
        <ele>927</ele>
        <time>2021-06-16T14:41:15Z</time>
      </trkpt>
      <trkpt lat="45.11055" lon="5.40441">
        <ele>932</ele>
        <time>2021-06-16T14:41:58Z</time>
      </trkpt>
      <trkpt lat="45.11047" lon="5.40438">
        <ele>934</ele>
        <time>2021-06-16T14:42:09Z</time>
      </trkpt>
      <trkpt lat="45.1103" lon="5.40428">
        <ele>935</ele>
        <time>2021-06-16T14:42:34Z</time>
      </trkpt>
      <trkpt lat="45.11019" lon="5.40428">
        <ele>935</ele>
        <time>2021-06-16T14:42:55Z</time>
      </trkpt>
      <trkpt lat="45.11014" lon="5.40424">
        <ele>935</ele>
        <time>2021-06-16T14:43:02Z</time>
      </trkpt>
      <trkpt lat="45.11009" lon="5.40423">
        <ele>935</ele>
        <time>2021-06-16T14:43:08Z</time>
      </trkpt>
      <trkpt lat="45.10995" lon="5.40421">
        <ele>933</ele>
        <time>2021-06-16T14:43:24Z</time>
      </trkpt>
      <trkpt lat="45.10988" lon="5.40419">
        <ele>933</ele>
        <time>2021-06-16T14:43:41Z</time>
      </trkpt>
      <trkpt lat="45.10981" lon="5.40424">
        <ele>932</ele>
        <time>2021-06-16T14:44:06Z</time>
      </trkpt>
      <trkpt lat="45.10975" lon="5.40422">
        <ele>932</ele>
        <time>2021-06-16T14:44:11Z</time>
      </trkpt>
      <trkpt lat="45.1097" lon="5.40419">
        <ele>931</ele>
        <time>2021-06-16T14:44:20Z</time>
      </trkpt>
      <trkpt lat="45.10952" lon="5.40416">
        <ele>929</ele>
        <time>2021-06-16T14:44:36Z</time>
      </trkpt>
      <trkpt lat="45.10944" lon="5.4042">
        <ele>929</ele>
        <time>2021-06-16T14:44:46Z</time>
      </trkpt>
      <trkpt lat="45.10936" lon="5.40422">
        <ele>928</ele>
        <time>2021-06-16T14:45:18Z</time>
      </trkpt>
      <trkpt lat="45.10931" lon="5.4042">
        <ele>926</ele>
        <time>2021-06-16T14:45:43Z</time>
      </trkpt>
      <trkpt lat="45.10927" lon="5.40413">
        <ele>928</ele>
        <time>2021-06-16T14:50:20Z</time>
      </trkpt>
      <trkpt lat="45.10921" lon="5.4041">
        <ele>928</ele>
        <time>2021-06-16T14:50:45Z</time>
      </trkpt>
      <trkpt lat="45.10916" lon="5.40404">
        <ele>928</ele>
        <time>2021-06-16T14:50:51Z</time>
      </trkpt>
      <trkpt lat="45.1091" lon="5.40401">
        <ele>928</ele>
        <time>2021-06-16T14:51:03Z</time>
      </trkpt>
      <trkpt lat="45.10904" lon="5.40392">
        <ele>927</ele>
        <time>2021-06-16T14:51:18Z</time>
      </trkpt>
      <trkpt lat="45.10902" lon="5.40382">
        <ele>927</ele>
        <time>2021-06-16T14:51:49Z</time>
      </trkpt>
      <trkpt lat="45.10898" lon="5.40375">
        <ele>926</ele>
        <time>2021-06-16T14:51:59Z</time>
      </trkpt>
      <trkpt lat="45.10887" lon="5.40361">
        <ele>925</ele>
        <time>2021-06-16T14:52:17Z</time>
      </trkpt>
      <trkpt lat="45.10882" lon="5.40357">
        <ele>924</ele>
        <time>2021-06-16T14:52:23Z</time>
      </trkpt>
      <trkpt lat="45.10878" lon="5.40349">
        <ele>923</ele>
        <time>2021-06-16T14:52:31Z</time>
      </trkpt>
      <trkpt lat="45.10868" lon="5.40336">
        <ele>922</ele>
        <time>2021-06-16T14:52:43Z</time>
      </trkpt>
      <trkpt lat="45.1086" lon="5.40332">
        <ele>921</ele>
        <time>2021-06-16T14:52:51Z</time>
      </trkpt>
      <trkpt lat="45.10846" lon="5.40317">
        <ele>919</ele>
        <time>2021-06-16T14:53:05Z</time>
      </trkpt>
      <trkpt lat="45.10842" lon="5.40309">
        <ele>920</ele>
        <time>2021-06-16T14:54:24Z</time>
      </trkpt>
      <trkpt lat="45.10836" lon="5.40305">
        <ele>920</ele>
        <time>2021-06-16T14:54:29Z</time>
      </trkpt>
      <trkpt lat="45.10832" lon="5.40298">
        <ele>919</ele>
        <time>2021-06-16T14:54:34Z</time>
      </trkpt>
      <trkpt lat="45.1083" lon="5.40291">
        <ele>919</ele>
        <time>2021-06-16T14:54:38Z</time>
      </trkpt>
      <trkpt lat="45.10823" lon="5.40276">
        <ele>918</ele>
        <time>2021-06-16T14:54:47Z</time>
      </trkpt>
      <trkpt lat="45.10819" lon="5.40271">
        <ele>917</ele>
        <time>2021-06-16T14:54:50Z</time>
      </trkpt>
      <trkpt lat="45.10815" lon="5.40266">
        <ele>917</ele>
        <time>2021-06-16T14:54:54Z</time>
      </trkpt>
      <trkpt lat="45.10811" lon="5.40258">
        <ele>915</ele>
        <time>2021-06-16T14:54:59Z</time>
      </trkpt>
      <trkpt lat="45.10811" lon="5.4025">
        <ele>916</ele>
        <time>2021-06-16T14:55:03Z</time>
      </trkpt>
      <trkpt lat="45.10812" lon="5.40242">
        <ele>916</ele>
        <time>2021-06-16T14:55:07Z</time>
      </trkpt>
      <trkpt lat="45.10813" lon="5.40234">
        <ele>915</ele>
        <time>2021-06-16T14:55:12Z</time>
      </trkpt>
      <trkpt lat="45.10815" lon="5.40225">
        <ele>913</ele>
        <time>2021-06-16T14:55:30Z</time>
      </trkpt>
      <trkpt lat="45.10819" lon="5.40217">
        <ele>912</ele>
        <time>2021-06-16T14:55:35Z</time>
      </trkpt>
      <trkpt lat="45.10832" lon="5.40205">
        <ele>911</ele>
        <time>2021-06-16T14:55:53Z</time>
      </trkpt>
      <trkpt lat="45.10837" lon="5.40202">
        <ele>910</ele>
        <time>2021-06-16T14:55:59Z</time>
      </trkpt>
      <trkpt lat="45.10843" lon="5.40201">
        <ele>911</ele>
        <time>2021-06-16T14:56:06Z</time>
      </trkpt>
      <trkpt lat="45.10852" lon="5.40195">
        <ele>910</ele>
        <time>2021-06-16T14:56:16Z</time>
      </trkpt>
      <trkpt lat="45.10857" lon="5.4019">
        <ele>907</ele>
        <time>2021-06-16T14:56:22Z</time>
      </trkpt>
      <trkpt lat="45.10867" lon="5.40179">
        <ele>911</ele>
        <time>2021-06-16T14:56:51Z</time>
      </trkpt>
      <trkpt lat="45.10869" lon="5.40171">
        <ele>907</ele>
        <time>2021-06-16T14:56:58Z</time>
      </trkpt>
      <trkpt lat="45.1087" lon="5.40163">
        <ele>909</ele>
        <time>2021-06-16T14:57:02Z</time>
      </trkpt>
      <trkpt lat="45.10868" lon="5.40153">
        <ele>911</ele>
        <time>2021-06-16T14:57:06Z</time>
      </trkpt>
      <trkpt lat="45.10864" lon="5.40148">
        <ele>906</ele>
        <time>2021-06-16T14:57:11Z</time>
      </trkpt>
      <trkpt lat="45.10858" lon="5.4014">
        <ele>909</ele>
        <time>2021-06-16T14:57:18Z</time>
      </trkpt>
      <trkpt lat="45.1085" lon="5.4013">
        <ele>910</ele>
        <time>2021-06-16T14:57:47Z</time>
      </trkpt>
      <trkpt lat="45.1084" lon="5.40129">
        <ele>909</ele>
        <time>2021-06-16T14:57:56Z</time>
      </trkpt>
      <trkpt lat="45.10833" lon="5.40131">
        <ele>909</ele>
        <time>2021-06-16T14:58:04Z</time>
      </trkpt>
      <trkpt lat="45.10825" lon="5.40128">
        <ele>909</ele>
        <time>2021-06-16T14:58:11Z</time>
      </trkpt>
      <trkpt lat="45.1081" lon="5.40126">
        <ele>908</ele>
        <time>2021-06-16T14:58:25Z</time>
      </trkpt>
      <trkpt lat="45.10801" lon="5.40128">
        <ele>905</ele>
        <time>2021-06-16T14:58:47Z</time>
      </trkpt>
      <trkpt lat="45.10794" lon="5.40134">
        <ele>905</ele>
        <time>2021-06-16T14:58:55Z</time>
      </trkpt>
      <trkpt lat="45.10787" lon="5.40133">
        <ele>908</ele>
        <time>2021-06-16T14:59:01Z</time>
      </trkpt>
      <trkpt lat="45.10772" lon="5.40138">
        <ele>905</ele>
        <time>2021-06-16T14:59:11Z</time>
      </trkpt>
      <trkpt lat="45.10764" lon="5.40139">
        <ele>907</ele>
        <time>2021-06-16T14:59:17Z</time>
      </trkpt>
      <trkpt lat="45.10758" lon="5.40136">
        <ele>907</ele>
        <time>2021-06-16T14:59:23Z</time>
      </trkpt>
      <trkpt lat="45.1075" lon="5.40137">
        <ele>907</ele>
        <time>2021-06-16T14:59:30Z</time>
      </trkpt>
      <trkpt lat="45.10742" lon="5.40137">
        <ele>907</ele>
        <time>2021-06-16T14:59:35Z</time>
      </trkpt>
      <trkpt lat="45.10736" lon="5.40139">
        <ele>907</ele>
        <time>2021-06-16T14:59:40Z</time>
      </trkpt>
      <trkpt lat="45.1073" lon="5.40137">
        <ele>907</ele>
        <time>2021-06-16T14:59:52Z</time>
      </trkpt>
      <trkpt lat="45.10724" lon="5.4013">
        <ele>908</ele>
        <time>2021-06-16T15:00:17Z</time>
      </trkpt>
      <trkpt lat="45.10718" lon="5.40129">
        <ele>908</ele>
        <time>2021-06-16T15:00:22Z</time>
      </trkpt>
      <trkpt lat="45.10704" lon="5.40132">
        <ele>908</ele>
        <time>2021-06-16T15:00:31Z</time>
      </trkpt>
      <trkpt lat="45.10699" lon="5.40139">
        <ele>908</ele>
        <time>2021-06-16T15:01:05Z</time>
      </trkpt>
      <trkpt lat="45.10695" lon="5.40128">
        <ele>908</ele>
        <time>2021-06-16T15:01:32Z</time>
      </trkpt>
      <trkpt lat="45.1069" lon="5.4013">
        <ele>909</ele>
        <time>2021-06-16T15:01:39Z</time>
      </trkpt>
      <trkpt lat="45.10682" lon="5.40131">
        <ele>908</ele>
        <time>2021-06-16T15:01:48Z</time>
      </trkpt>
      <trkpt lat="45.1067" lon="5.40133">
        <ele>909</ele>
        <time>2021-06-16T15:01:59Z</time>
      </trkpt>
      <trkpt lat="45.10664" lon="5.40139">
        <ele>909</ele>
        <time>2021-06-16T15:02:05Z</time>
      </trkpt>
      <trkpt lat="45.10661" lon="5.40147">
        <ele>908</ele>
        <time>2021-06-16T15:02:10Z</time>
      </trkpt>
      <trkpt lat="45.10655" lon="5.40166">
        <ele>908</ele>
        <time>2021-06-16T15:02:48Z</time>
      </trkpt>
      <trkpt lat="45.1065" lon="5.40165">
        <ele>907</ele>
        <time>2021-06-16T15:02:58Z</time>
      </trkpt>
      <trkpt lat="45.10648" lon="5.40159">
        <ele>908</ele>
        <time>2021-06-16T15:03:50Z</time>
      </trkpt>
      <trkpt lat="45.10646" lon="5.40157">
        <ele>909</ele>
        <time>2021-06-16T15:04:55Z</time>
      </trkpt>
      <trkpt lat="45.10643" lon="5.40164">
        <ele>909</ele>
        <time>2021-06-16T15:05:40Z</time>
      </trkpt>
      <trkpt lat="45.10639" lon="5.40157">
        <ele>909</ele>
        <time>2021-06-16T15:06:05Z</time>
      </trkpt>
      <trkpt lat="45.10647" lon="5.40155">
        <ele>910</ele>
        <time>2021-06-16T15:06:15Z</time>
      </trkpt>
      <trkpt lat="45.10651" lon="5.40145">
        <ele>911</ele>
        <time>2021-06-16T15:06:30Z</time>
      </trkpt>
      <trkpt lat="45.10652" lon="5.40139">
        <ele>911</ele>
        <time>2021-06-16T15:06:35Z</time>
      </trkpt>
      <trkpt lat="45.10655" lon="5.40131">
        <ele>911</ele>
        <time>2021-06-16T15:06:44Z</time>
      </trkpt>
      <trkpt lat="45.10654" lon="5.40133">
        <ele>912</ele>
        <time>2021-06-16T15:10:22Z</time>
      </trkpt>
      <trkpt lat="45.10679" lon="5.40105">
        <ele>915</ele>
        <time>2021-06-16T15:13:36Z</time>
      </trkpt>
      <trkpt lat="45.10682" lon="5.40137">
        <ele>920</ele>
        <time>2021-06-16T15:21:16Z</time>
      </trkpt>
      <trkpt lat="45.10676" lon="5.40136">
        <ele>919</ele>
        <time>2021-06-16T15:21:27Z</time>
      </trkpt>
      <trkpt lat="45.1067" lon="5.40134">
        <ele>921</ele>
        <time>2021-06-16T15:21:33Z</time>
      </trkpt>
      <trkpt lat="45.10664" lon="5.40136">
        <ele>920</ele>
        <time>2021-06-16T15:21:43Z</time>
      </trkpt>
    </trkseg>
  </trk>
  <rte>
    <name><![CDATA[4 avr. 2019 à 23:11:12]]></name>
    <cmt><![CDATA[4 avr. 2019 à 23:11:12]]></cmt>
    <desc><![CDATA[{DC1}Heure de fin	: 
Durée totale	: 0h00:00
Moyenne globale	: -
Pente moyenne	: 0.00 %
Aire incluse	: 7.4932 ha
Détails par segments
distance  | durée    | vit.moy. | vit.max. | déniv. + | déniv -
   km     | hh:mn:ss |   km/h   |   km/h   |    m     |    m
     0.81 | 00:00:00 |      0.0 |      0.0 |        0 |        0{DC2}]]></desc>
      <rtept lat="45.60077" lon="6.18221">
        <ele>1608.6</ele>
      </rtept>
      <rtept lat="45.59468" lon="6.1822">
        <ele>1760.9</ele>
      </rtept>
      <rtept lat="45.59468" lon="6.1822">
        <ele>1760.9</ele>
      </rtept>
    </rte>
  <rte>
    <name><![CDATA[10 févr. 2019 à 15:16:12]]></name>
    <cmt><![CDATA[10 févr. 2019 à 15:16:12]]></cmt>
    <desc><![CDATA[{DC1}Heure de fin	: 00:09:21
Durée totale	: -17690439h43:48
Moyenne globale	: -
Pente moyenne	: 7.00 %
Aire incluse	: 221.0936 ha
Détails par segments
distance  | durée    | vit.moy. | vit.max. | déniv. + | déniv -
   km     | hh:mn:ss |   km/h   |   km/h   |    m     |    m
     7.48 | 00:00:00 |      0.0 |      0.0 |        0 |        0{DC2}]]></desc>
      <rtept lat="45.55203" lon="5.93805">
        <ele>376</ele>
      </rtept>
      <rtept lat="45.55177" lon="5.93873">
        <ele>369</ele>
      </rtept>
      <rtept lat="45.55176" lon="5.93942">
        <ele>367</ele>
      </rtept>
      <rtept lat="45.55105" lon="5.93942">
        <ele>367</ele>
      </rtept>
      <rtept lat="45.54993" lon="5.93908">
        <ele>371</ele>
      </rtept>
      <rtept lat="45.54929" lon="5.94099">
        <ele>370</ele>
      </rtept>
      <rtept lat="45.54908" lon="5.94204">
        <ele>367</ele>
      </rtept>
      <rtept lat="45.54991" lon="5.94287">
        <ele>365</ele>
      </rtept>
      <rtept lat="45.5506" lon="5.94384">
        <ele>361</ele>
      </rtept>
      <rtept lat="45.55147" lon="5.94384">
        <ele>357</ele>
      </rtept>
      <rtept lat="45.55129" lon="5.94607">
        <ele>358</ele>
      </rtept>
      <rtept lat="45.55029" lon="5.94809">
        <ele>355</ele>
      </rtept>
      <rtept lat="45.54884" lon="5.94886">
        <ele>346</ele>
      </rtept>
      <rtept lat="45.5477" lon="5.94931">
        <ele>342</ele>
      </rtept>
      <rtept lat="45.5468" lon="5.95004">
        <ele>339</ele>
      </rtept>
      <rtept lat="45.54596" lon="5.95133">
        <ele>340</ele>
      </rtept>
      <rtept lat="45.54446" lon="5.95195">
        <ele>343</ele>
      </rtept>
      <rtept lat="45.543" lon="5.95262">
        <ele>344</ele>
      </rtept>
      <rtept lat="45.54156" lon="5.95212">
        <ele>337</ele>
      </rtept>
      <rtept lat="45.54041" lon="5.95204">
        <ele>338</ele>
      </rtept>
      <rtept lat="45.53917" lon="5.95141">
        <ele>343</ele>
      </rtept>
      <rtept lat="45.53844" lon="5.95135">
        <ele>347</ele>
      </rtept>
      <rtept lat="45.53765" lon="5.9503">
        <ele>349</ele>
      </rtept>
      <rtept lat="45.5381" lon="5.94993">
        <ele>352</ele>
      </rtept>
      <rtept lat="45.53781" lon="5.94901">
        <ele>358</ele>
      </rtept>
      <rtept lat="45.53711" lon="5.94845">
        <ele>365</ele>
      </rtept>
      <rtept lat="45.53702" lon="5.94764">
        <ele>369</ele>
      </rtept>
      <rtept lat="45.53817" lon="5.94807">
        <ele>376</ele>
      </rtept>
      <rtept lat="45.53865" lon="5.94633">
        <ele>389</ele>
      </rtept>
      <rtept lat="45.53778" lon="5.94491">
        <ele>408</ele>
      </rtept>
      <rtept lat="45.53757" lon="5.94371">
        <ele>425</ele>
      </rtept>
      <rtept lat="45.53775" lon="5.94279">
        <ele>434</ele>
      </rtept>
      <rtept lat="45.53726" lon="5.94227">
        <ele>442</ele>
      </rtept>
      <rtept lat="45.53572" lon="5.94146">
        <ele>468</ele>
      </rtept>
      <rtept lat="45.53664" lon="5.94039">
        <ele>483</ele>
      </rtept>
      <rtept lat="45.53532" lon="5.93983">
        <ele>505</ele>
      </rtept>
      <rtept lat="45.53416" lon="5.93985">
        <ele>516</ele>
      </rtept>
      <rtept lat="45.5355" lon="5.93869">
        <ele>532</ele>
      </rtept>
      <rtept lat="45.5359" lon="5.93845">
        <ele>537</ele>
      </rtept>
      <rtept lat="45.5355" lon="5.93802">
        <ele>544</ele>
      </rtept>
      <rtept lat="45.53724" lon="5.93554">
        <ele>587</ele>
      </rtept>
      <rtept lat="45.53691" lon="5.93339">
        <ele>592</ele>
      </rtept>
      <rtept lat="45.5376" lon="5.93178">
        <ele>575</ele>
      </rtept>
      <rtept lat="45.53843" lon="5.93069">
        <ele>555</ele>
      </rtept>
      <rtept lat="45.53939" lon="5.93157">
        <ele>541</ele>
      </rtept>
      <rtept lat="45.54068" lon="5.93234">
        <ele>522</ele>
      </rtept>
      <rtept lat="45.54219" lon="5.93247">
        <ele>514</ele>
      </rtept>
      <rtept lat="45.54355" lon="5.93232">
        <ele>512</ele>
      </rtept>
      <rtept lat="45.54489" lon="5.9326">
        <ele>508</ele>
      </rtept>
      <rtept lat="45.54636" lon="5.93249">
        <ele>510</ele>
      </rtept>
      <rtept lat="45.54758" lon="5.93249">
        <ele>510</ele>
      </rtept>
      <rtept lat="45.54818" lon="5.93298">
        <ele>507</ele>
      </rtept>
      <rtept lat="45.54796" lon="5.93418">
        <ele>496</ele>
      </rtept>
      <rtept lat="45.5491" lon="5.93433">
        <ele>483</ele>
      </rtept>
      <rtept lat="45.55126" lon="5.9341">
        <ele>463</ele>
      </rtept>
      <rtept lat="45.55256" lon="5.93453">
        <ele>444</ele>
      </rtept>
      <rtept lat="45.55329" lon="5.93558">
        <ele>430</ele>
      </rtept>
      <rtept lat="45.55222" lon="5.93642">
        <ele>415</ele>
      </rtept>
      <rtept lat="45.55195" lon="5.93811">
        <ele>375</ele>
      </rtept>
    </rte>
  <rte>
    <name><![CDATA[10 févr. 2019 à 15:15:48]]></name>
    <cmt><![CDATA[10 févr. 2019 à 15:15:48]]></cmt>
    <desc><![CDATA[{DC1}Heure de fin	: 00:09:21
Durée totale	: -17690439h44:12
Moyenne globale	: -
Pente moyenne	: nan %
Aire incluse	: 0.0000 ha
Détails par segments
distance  | durée    | vit.moy. | vit.max. | déniv. + | déniv -
   km     | hh:mn:ss |   km/h   |   km/h   |    m     |    m
     0.00 | 00:00:00 |      0.0 |      0.0 |        0 |        0{DC2}]]></desc>
      <rtept lat="45.5175" lon="5.93483">
        <ele>732.3</ele>
      </rtept>
    </rte>
  <rte>
    <name><![CDATA[10 févr. 2019 à 15:06:08]]></name>
    <cmt><![CDATA[10 févr. 2019 à 15:06:08]]></cmt>
    <desc><![CDATA[{DC1}Heure de fin	: 
Durée totale	: 0h00:00
Moyenne globale	: -
Pente moyenne	: 8.03 %
Aire incluse	: 204.0794 ha
Détails par segments
distance  | durée    | vit.moy. | vit.max. | déniv. + | déniv -
   km     | hh:mn:ss |   km/h   |   km/h   |    m     |    m
    12.88 | 00:00:00 |      0.0 |      0.0 |        0 |        0{DC2}]]></desc>
      <rtept lat="45.5509" lon="5.9394">
        <ele>368</ele>
      </rtept>
      <rtept lat="45.55217" lon="5.93791">
        <ele>377</ele>
      </rtept>
    </rte>
  <rte>
    <name><![CDATA[10 févr. 2019 à 14:22:06]]></name>
    <cmt><![CDATA[10 févr. 2019 à 14:22:06]]></cmt>
    <desc><![CDATA[{DC1}Heure de fin	: 00:09:21
Durée totale	: -17690438h37:54
Moyenne globale	: -
Pente moyenne	: 5.62 %
Aire incluse	: 5.7967 ha
Détails par segments
distance  | durée    | vit.moy. | vit.max. | déniv. + | déniv -
   km     | hh:mn:ss |   km/h   |   km/h   |    m     |    m
     3.30 | 00:00:00 |      0.0 |      0.0 |        0 |        0{DC2}]]></desc>
      <rtept lat="45.55169" lon="5.93089">
        <ele>415</ele>
      </rtept>
      <rtept lat="45.5518" lon="5.93905">
        <ele>366</ele>
      </rtept>
    </rte>
  <rte>
    <name><![CDATA[10 févr. 2019 à 09:50:45]]></name>
    <cmt><![CDATA[10 févr. 2019 à 09:50:45]]></cmt>
    <desc><![CDATA[{DC1}Heure de fin	: 00:09:21
Durée totale	: -17690433h09:14
Moyenne globale	: -
Pente moyenne	: 0.00 %
Aire incluse	: 50.7119 ha
Détails par segments
distance  | durée    | vit.moy. | vit.max. | déniv. + | déniv -
   km     | hh:mn:ss |   km/h   |   km/h   |    m     |    m
     4.33 | 00:00:00 |      0.0 |      0.0 |        0 |        0{DC2}]]></desc>
      <rtept lat="45.5503" lon="5.93918">
        <ele>373.6</ele>
      </rtept>
      <rtept lat="45.55191" lon="5.93893">
        <ele>366.7</ele>
      </rtept>
    </rte>
  <rte>
    <name><![CDATA[10 févr. 2019 à 09:07:08]]></name>
    <cmt><![CDATA[10 févr. 2019 à 09:07:08]]></cmt>
    <desc><![CDATA[{DC1}Heure de fin	: 00:09:21
Durée totale	: -17690433h52:52
Moyenne globale	: -
Pente moyenne	: nan %
Aire incluse	: 0.0000 ha
Détails par segments
distance  | durée    | vit.moy. | vit.max. | déniv. + | déniv -
   km     | hh:mn:ss |   km/h   |   km/h   |    m     |    m
     0.00 | 00:00:00 |      0.0 |      0.0 |        0 |        0{DC2}]]></desc>
      <rtept lat="45.55102" lon="5.93919">
        <ele>370.1</ele>
      </rtept>
    </rte>
  <rte>
    <name><![CDATA[10 févr. 2019 à 09:02:25]]></name>
    <cmt><![CDATA[10 févr. 2019 à 09:02:25]]></cmt>
    <desc><![CDATA[{DC1}Heure de fin	: 00:09:21
Durée totale	: -17690433h57:35
Moyenne globale	: -
Pente moyenne	: nan %
Aire incluse	: 0.0000 ha
Détails par segments
distance  | durée    | vit.moy. | vit.max. | déniv. + | déniv -
   km     | hh:mn:ss |   km/h   |   km/h   |    m     |    m
     0.00 | 00:00:00 |      0.0 |      0.0 |        0 |        0{DC2}]]></desc>
      <rtept lat="45.55207" lon="5.93813">
        <ele>375.2</ele>
      </rtept>
    </rte>
  <rte>
    <name><![CDATA[10 févr. 2019 à 09:00:27]]></name>
    <cmt><![CDATA[10 févr. 2019 à 09:00:27]]></cmt>
    <desc><![CDATA[{DC1}Heure de fin	: 00:09:21
Durée totale	: -17690433h59:32
Moyenne globale	: -
Pente moyenne	: nan %
Aire incluse	: 0.0000 ha
Détails par segments
distance  | durée    | vit.moy. | vit.max. | déniv. + | déniv -
   km     | hh:mn:ss |   km/h   |   km/h   |    m     |    m
     0.00 | 00:00:00 |      0.0 |      0.0 |        0 |        0{DC2}]]></desc>
      <rtept lat="45.55244" lon="5.93858">
        <ele>366.6</ele>
      </rtept>
    </rte>
</gpx>